Terminal Aerodrome Forecast
Issued by NWS Indianapolis, IN

Home | Current Version | Previous Version | Text Only | Print | Product List | Glossary On
Versions: 1 2 3 4 5 6 7 8 9 10 11 12 13 14 15 16 17 18 19 20 21 22 23 24 25 26 27 28 29 30 31 32 33 34 35
000
FTUS43 KIND 230800 AAA
TAFIND
TAF AMD
KIND 230808Z 2308/2412 16003KT P6SM SCT007 SCT250
      TEMPO 2310/2314 4SM BR
     FM231400 VRB03KT P6SM SCT020 BKN100
     FM232000 VRB04KT P6SM SCT025 BKN120 PROB30 2320/2324 3SM TSRA
      BKN020CB=

USA.gov is the U.S. government's official web portal to all federal, state and local government web resources and services.